createdAt,value
2023-04-21T00:00:09.336Z,21.33
2023-04-21T00:02:40.085Z,24.30
2023-04-21T00:05:11.053Z,21.63
2023-04-21T00:07:39.497Z,22.70
2023-04-21T00:10:11.104Z,23.53
2023-04-21T00:12:38.550Z,19.63
2023-04-21T00:15:06.593Z,20.70
2023-04-21T00:17:33.848Z,19.27
2023-04-21T00:20:00.927Z,20.10
2023-04-21T00:22:28.154Z,21.60
2023-04-21T00:24:55.279Z,23.20
2023-04-21T00:27:22.403Z,20.43
2023-04-21T00:29:49.515Z,21.43
2023-04-21T00:32:17.585Z,20.80
2023-04-21T00:34:45.187Z,23.17
2023-04-21T00:37:12.485Z,25.07
2023-04-21T00:39:40.059Z,26.00
2023-04-21T00:42:07.256Z,24.77
2023-04-21T00:44:35.859Z,24.17
2023-04-21T00:47:04.234Z,27.30
2023-04-21T00:49:31.563Z,52.20
2023-04-21T00:51:59.021Z,28.67
2023-04-21T00:54:27.050Z,36.83
2023-04-21T00:56:58.524Z,28.37
2023-04-21T00:59:28.283Z,26.77
2023-04-21T01:01:57.192Z,30.87
2023-04-21T01:04:24.435Z,30.17
2023-04-21T01:06:52.178Z,28.37
2023-04-21T01:09:19.951Z,28.17
2023-04-21T01:12:08.646Z,33.87
2023-04-21T01:14:37.097Z,28.33
2023-04-21T01:17:06.297Z,28.87
2023-04-21T01:19:42.324Z,30.60
2023-04-21T01:22:15.335Z,27.73
2023-04-21T01:24:47.479Z,28.47
2023-04-21T01:27:18.880Z,25.00
2023-04-21T01:29:50.079Z,27.07
2023-04-21T01:32:21.012Z,29.37
2023-04-21T01:34:49.295Z,27.03
2023-04-21T01:37:18.715Z,28.00
2023-04-21T01:39:52.328Z,25.47
2023-04-21T01:42:20.994Z,28.13
2023-04-21T01:44:49.607Z,23.43
2023-04-21T01:47:18.665Z,22.30
2023-04-21T01:49:46.451Z,22.83
2023-04-21T01:52:13.711Z,22.67
2023-04-21T01:54:40.812Z,24.63
2023-04-21T01:57:08.207Z,24.37
2023-04-21T01:59:35.400Z,22.87
2023-04-21T02:02:03.697Z,27.60
2023-04-21T02:04:33.734Z,22.47
2023-04-21T02:07:00.974Z,26.40
2023-04-21T02:09:28.156Z,22.87
2023-04-21T02:11:58.406Z,22.40
2023-04-21T02:14:26.358Z,17.20
2023-04-21T02:16:53.824Z,17.30
2023-04-21T02:19:22.386Z,17.93
2023-04-21T02:21:49.552Z,15.97
2023-04-21T02:24:16.616Z,19.00
2023-04-21T02:26:43.797Z,22.50
2023-04-21T02:29:10.952Z,22.20
2023-04-21T02:31:54.331Z,23.20
2023-04-21T02:34:26.171Z,24.67
2023-04-21T02:36:53.312Z,23.10
2023-04-21T02:39:20.669Z,20.77
2023-04-21T02:41:47.896Z,17.17
2023-04-21T02:44:14.991Z,20.43
2023-04-21T02:46:42.235Z,20.37
2023-04-21T02:49:10.334Z,20.00
2023-04-21T02:51:37.689Z,20.80
2023-04-21T02:54:05.809Z,19.40
2023-04-21T02:56:34.907Z,23.97
2023-04-21T02:59:02.019Z,20.33
2023-04-21T03:01:29.153Z,20.50
2023-04-21T03:03:56.609Z,20.23
2023-04-21T03:06:23.827Z,18.57
2023-04-21T03:08:52.293Z,20.00
2023-04-21T03:11:19.421Z,20.77
2023-04-21T03:13:46.499Z,18.17
2023-04-21T03:16:13.709Z,18.50
2023-04-21T03:18:44.252Z,18.53
2023-04-21T03:21:12.610Z,19.17
2023-04-21T03:23:39.663Z,19.17
2023-04-21T03:26:08.112Z,14.73
2023-04-21T03:28:35.404Z,15.03
2023-04-21T03:31:03.437Z,14.27
2023-04-21T03:33:30.551Z,15.80
2023-04-21T03:35:57.654Z,13.47
2023-04-21T03:38:24.751Z,13.87
2023-04-21T03:40:51.986Z,16.10
2023-04-21T03:43:19.324Z,15.80
2023-04-21T03:45:46.704Z,17.83
2023-04-21T03:48:13.905Z,18.20
2023-04-21T03:50:41.207Z,14.10
2023-04-21T03:53:08.276Z,14.87
2023-04-21T03:55:35.804Z,13.97
2023-04-21T03:58:02.948Z,11.77
2023-04-21T04:00:30.059Z,10.80
2023-04-21T04:02:57.224Z,10.93
2023-04-21T04:05:24.772Z,10.57
2023-04-21T04:07:51.885Z,10.17
2023-04-21T04:10:19.088Z,11.07
2023-04-21T04:12:46.123Z,15.30
2023-04-21T04:15:13.389Z,13.07
2023-04-21T04:17:40.528Z,17.23
2023-04-21T04:20:08.667Z,15.83
2023-04-21T04:22:35.830Z,16.47
2023-04-21T04:25:03.035Z,14.60
2023-04-21T04:27:30.086Z,13.40
2023-04-21T04:29:57.728Z,11.03
2023-04-21T04:32:28.737Z,11.43
2023-04-21T04:34:56.129Z,11.80
2023-04-21T04:37:23.203Z,10.83
2023-04-21T04:39:53.965Z,11.13
2023-04-21T04:42:21.054Z,11.27
2023-04-21T04:44:48.263Z,10.87
2023-04-21T04:47:15.406Z,14.10
2023-04-21T04:49:42.608Z,16.37
2023-04-21T04:52:09.731Z,17.43
2023-04-21T04:54:36.924Z,15.43
2023-04-21T04:57:04.009Z,15.63
2023-04-21T04:59:31.697Z,15.97
2023-04-21T05:01:58.817Z,13.70
2023-04-21T05:04:26.447Z,15.50
2023-04-21T05:06:54.164Z,14.33
2023-04-21T05:09:21.284Z,12.67
2023-04-21T05:11:48.343Z,11.40
2023-04-21T05:14:15.543Z,11.27
2023-04-21T05:16:44.248Z,11.00
2023-04-21T05:19:11.457Z,12.80
2023-04-21T05:21:38.557Z,11.57
2023-04-21T05:24:05.942Z,10.23
2023-04-21T05:26:32.967Z,12.87
2023-04-21T05:29:00.054Z,13.93
2023-04-21T05:31:27.426Z,15.83
2023-04-21T05:33:54.560Z,15.80
2023-04-21T05:36:21.584Z,16.00
2023-04-21T05:38:48.739Z,16.37
2023-04-21T05:41:16.178Z,15.93
2023-04-21T05:43:43.480Z,14.77
2023-04-21T05:46:13.710Z,14.50
2023-04-21T05:48:41.712Z,13.53
2023-04-21T05:51:11.067Z,13.93
2023-04-21T05:53:39.413Z,14.03
2023-04-21T05:56:08.677Z,12.93
2023-04-21T05:58:36.829Z,11.63
2023-04-21T06:01:04.901Z,12.00
2023-04-21T06:03:32.458Z,11.23
2023-04-21T06:06:04.467Z,8.50
2023-04-21T06:08:31.628Z,10.00
2023-04-21T06:10:58.994Z,9.77
2023-04-21T06:13:27.681Z,9.13
2023-04-21T06:15:55.521Z,9.67
2023-04-21T06:18:22.817Z,9.57
2023-04-21T06:20:54.508Z,11.37
2023-04-21T06:23:21.965Z,10.80
2023-04-21T06:26:05.224Z,10.20
2023-04-21T06:28:33.245Z,9.53
2023-04-21T06:31:01.687Z,9.20
2023-04-21T06:33:29.994Z,9.40
2023-04-21T06:35:57.363Z,11.23
2023-04-21T06:38:24.538Z,10.80
2023-04-21T06:40:51.949Z,14.63
2023-04-21T06:43:18.994Z,11.37
2023-04-21T06:45:46.152Z,9.67
2023-04-21T06:48:13.319Z,9.60
2023-04-21T06:50:41.178Z,10.90
2023-04-21T06:53:11.376Z,11.73
2023-04-21T06:55:38.541Z,11.47
2023-04-21T06:58:05.608Z,12.43
2023-04-21T07:00:32.726Z,12.97
2023-04-21T07:02:59.838Z,12.90
2023-04-21T07:05:27.500Z,14.13
2023-04-21T07:07:59.485Z,11.90
2023-04-21T07:10:27.231Z,13.60
2023-04-21T07:12:54.454Z,13.57
2023-04-21T07:15:22.230Z,10.67
2023-04-21T07:17:49.425Z,12.20
2023-04-21T07:20:18.914Z,11.67
2023-04-21T07:22:46.144Z,14.53
2023-04-21T07:25:13.256Z,11.97
2023-04-21T07:27:40.456Z,11.40
2023-04-21T07:30:08.623Z,10.00
2023-04-21T07:32:38.596Z,9.37
2023-04-21T07:35:07.002Z,10.20
2023-04-21T07:37:34.124Z,10.50
2023-04-21T07:40:01.489Z,10.47
2023-04-21T07:42:28.643Z,11.30
2023-04-21T07:44:57.533Z,12.17
2023-04-21T07:47:24.885Z,12.97
2023-04-21T07:49:52.050Z,13.10
2023-04-21T07:52:19.211Z,15.13
2023-04-21T07:54:46.321Z,14.23
2023-04-21T07:57:13.680Z,15.50
2023-04-21T07:59:40.874Z,14.30
2023-04-21T08:02:08.705Z,14.87
2023-04-21T08:04:36.267Z,13.90
2023-04-21T08:07:03.891Z,13.43
2023-04-21T08:09:31.137Z,13.43
2023-04-21T08:11:58.163Z,14.13
2023-04-21T08:14:27.065Z,13.67
2023-04-21T08:16:56.733Z,13.60
2023-04-21T08:19:24.884Z,14.13
2023-04-21T08:21:52.163Z,13.27
2023-04-21T08:24:19.570Z,14.03
2023-04-21T08:26:46.867Z,12.13
2023-04-21T08:29:14.258Z,13.17
2023-04-21T08:31:41.568Z,11.67
2023-04-21T08:34:08.819Z,13.23
2023-04-21T08:36:35.989Z,14.23
2023-04-21T08:39:03.265Z,14.47
2023-04-21T08:41:30.511Z,14.97
2023-04-21T08:43:57.768Z,14.17
2023-04-21T08:46:25.054Z,16.50
2023-04-21T08:48:54.522Z,16.53
2023-04-21T08:51:24.314Z,15.37
2023-04-21T08:53:52.291Z,17.17
2023-04-21T08:56:19.500Z,15.53
2023-04-21T08:58:46.580Z,14.90
2023-04-21T09:01:13.860Z,15.37
2023-04-21T09:03:41.136Z,16.73
2023-04-21T09:06:10.227Z,16.40
2023-04-21T09:08:58.740Z,17.47
2023-04-21T09:11:25.956Z,15.67
2023-04-21T09:13:57.703Z,15.83
2023-04-21T09:16:24.861Z,16.23
2023-04-21T09:18:51.915Z,14.80
2023-04-21T09:21:20.212Z,14.53
2023-04-21T09:23:53.203Z,15.83
2023-04-21T09:26:31.017Z,17.17
2023-04-21T09:28:58.333Z,14.73
2023-04-21T09:31:25.737Z,15.90
2023-04-21T09:33:58.379Z,15.97
2023-04-21T09:36:28.878Z,15.53
2023-04-21T09:41:33.944Z,15.00
2023-04-21T09:44:02.035Z,15.20
2023-04-21T09:46:34.675Z,17.13
2023-04-21T09:49:02.535Z,14.57
2023-04-21T09:51:49.273Z,13.87
2023-04-21T09:54:29.555Z,13.83
2023-04-21T09:57:03.872Z,14.23
2023-04-21T09:59:37.234Z,14.07
2023-04-21T10:02:07.185Z,12.67
2023-04-21T10:04:36.973Z,12.50
2023-04-21T10:07:04.648Z,13.70
2023-04-21T10:09:37.115Z,13.40
2023-04-21T10:12:06.925Z,12.93
2023-04-21T10:14:36.321Z,12.43
2023-04-21T10:17:08.768Z,12.90
2023-04-21T10:19:40.222Z,13.73
2023-04-21T10:22:11.188Z,10.70
2023-04-21T10:24:42.977Z,10.93
2023-04-21T10:27:11.892Z,11.40
2023-04-21T10:29:55.682Z,12.27
2023-04-21T10:32:43.060Z,11.40
2023-04-21T10:35:15.565Z,12.63
2023-04-21T10:37:43.241Z,11.73
2023-04-21T10:43:47.432Z,13.50
2023-04-21T10:46:45.578Z,11.27
2023-04-21T10:49:23.333Z,12.67
2023-04-21T10:52:20.964Z,11.13
2023-04-21T10:55:11.548Z,11.73
2023-04-21T10:57:42.581Z,12.57
2023-04-21T11:00:11.596Z,12.57
2023-04-21T11:02:40.528Z,10.97
2023-04-21T11:05:10.358Z,11.53
2023-04-21T11:07:37.576Z,12.97
2023-04-21T11:10:09.210Z,12.63
2023-04-21T11:12:41.017Z,13.60
2023-04-21T11:15:10.676Z,13.80
2023-04-21T11:17:43.778Z,13.43
2023-04-21T11:20:11.345Z,14.43
2023-04-21T11:22:38.883Z,15.13
2023-04-21T11:25:59.520Z,15.30
2023-04-21T11:28:27.393Z,15.33
2023-04-21T11:30:54.726Z,14.37
2023-04-21T11:33:22.151Z,15.17
2023-04-21T11:35:51.701Z,15.17
2023-04-21T11:38:19.036Z,15.00
2023-04-21T11:40:48.250Z,15.33
2023-04-21T11:43:15.936Z,13.77
2023-04-21T11:45:43.047Z,14.07
2023-04-21T11:48:15.754Z,13.90
2023-04-21T11:50:48.215Z,13.97
2023-04-21T11:53:16.031Z,13.63
2023-04-21T11:55:48.997Z,15.57
2023-04-21T11:58:18.026Z,14.30
2023-04-21T12:00:46.426Z,16.43
2023-04-21T12:03:14.361Z,13.87
2023-04-21T12:05:41.748Z,11.63
2023-04-21T12:08:15.287Z,10.03
2023-04-21T12:10:51.705Z,11.23
2023-04-21T12:13:27.503Z,9.90
2023-04-21T12:15:54.775Z,9.60
2023-04-21T12:18:27.838Z,10.47
2023-04-21T12:20:55.182Z,9.57
2023-04-21T12:23:22.216Z,8.27
2023-04-21T12:25:50.139Z,7.73
2023-04-21T12:28:18.253Z,7.90
2023-04-21T12:30:45.484Z,7.93
2023-04-21T12:33:13.226Z,7.83
2023-04-21T12:35:40.594Z,8.73
2023-04-21T12:38:07.647Z,7.20
2023-04-21T12:40:35.698Z,6.57
2023-04-21T12:43:02.797Z,7.17
2023-04-21T12:45:29.995Z,6.40
2023-04-21T12:47:58.323Z,7.10
2023-04-21T12:50:25.628Z,7.73
2023-04-21T12:52:55.292Z,7.37
2023-04-21T12:55:23.401Z,7.20
2023-04-21T12:57:51.015Z,7.40
2023-04-21T13:00:18.244Z,7.20
2023-04-21T13:02:45.560Z,7.10
2023-04-21T13:05:13.381Z,7.57
2023-04-21T13:07:41.500Z,7.37
2023-04-21T13:10:09.176Z,6.53
2023-04-21T13:12:36.229Z,6.83
2023-04-21T13:15:03.909Z,7.57
2023-04-21T13:17:31.050Z,7.50
2023-04-21T13:19:58.180Z,7.13
2023-04-21T13:22:25.334Z,6.77
2023-04-21T13:24:52.447Z,6.57
2023-04-21T13:27:19.543Z,8.23
2023-04-21T13:29:47.733Z,7.67
2023-04-21T13:32:14.844Z,7.67
2023-04-21T13:34:41.913Z,7.83
2023-04-21T13:37:10.961Z,7.00
2023-04-21T13:39:38.287Z,7.33
2023-04-21T13:42:08.749Z,7.03
2023-04-21T13:44:36.034Z,7.33
2023-04-21T13:47:04.685Z,6.50
2023-04-21T13:49:33.015Z,6.13
2023-04-21T13:52:00.360Z,6.80
2023-04-21T13:54:27.931Z,7.47
2023-04-21T13:56:55.080Z,7.33
2023-04-21T13:59:22.557Z,7.53
2023-04-21T14:01:49.651Z,6.97
2023-04-21T14:04:17.154Z,6.57
2023-04-21T14:06:44.638Z,7.13
2023-04-21T14:09:11.992Z,6.17
2023-04-21T14:11:39.160Z,6.40
2023-04-21T14:14:10.058Z,7.00
2023-04-21T14:16:38.646Z,7.90
2023-04-21T14:19:06.308Z,7.63
2023-04-21T14:21:33.721Z,6.20
2023-04-21T14:24:00.997Z,6.93
2023-04-21T14:26:28.241Z,6.40
2023-04-21T14:28:55.289Z,5.83
2023-04-21T14:31:22.608Z,6.43
2023-04-21T14:33:49.817Z,6.00
2023-04-21T14:36:17.032Z,6.53
2023-04-21T14:38:44.284Z,6.20
2023-04-21T14:41:11.507Z,5.13
2023-04-21T14:43:38.650Z,5.63
2023-04-21T14:46:06.026Z,4.80
2023-04-21T14:48:33.356Z,6.20
2023-04-21T14:51:00.680Z,6.20
2023-04-21T14:53:27.858Z,6.27
2023-04-21T14:55:55.015Z,6.23
2023-04-21T14:58:22.080Z,7.00
2023-04-21T15:00:49.334Z,6.50
2023-04-21T15:03:16.594Z,6.20
2023-04-21T15:05:43.818Z,6.57
2023-04-21T15:08:11.911Z,7.50
2023-04-21T15:10:39.111Z,7.20
2023-04-21T15:13:06.283Z,7.13
2023-04-21T15:15:33.606Z,7.07
2023-04-21T15:18:00.685Z,7.20
2023-04-21T15:20:43.153Z,7.17
2023-04-21T15:23:12.558Z,6.73
2023-04-21T15:25:40.416Z,7.27
2023-04-21T15:28:07.732Z,7.00
2023-04-21T15:30:34.860Z,6.40
2023-04-21T15:33:02.928Z,7.30
2023-04-21T15:35:30.397Z,7.30
2023-04-21T15:37:57.640Z,6.70
2023-04-21T15:40:24.811Z,7.03
2023-04-21T15:42:52.006Z,5.90
2023-04-21T15:45:19.190Z,5.93
2023-04-21T15:47:46.552Z,5.80
2023-04-21T15:50:13.715Z,6.00
2023-04-21T15:52:43.408Z,6.17
2023-04-21T15:55:14.101Z,6.53
2023-04-21T15:57:41.303Z,5.83
2023-04-21T16:00:10.680Z,5.70
2023-04-21T16:02:38.266Z,6.07
2023-04-21T16:05:06.253Z,5.87
2023-04-21T16:07:33.669Z,5.67
2023-04-21T16:10:01.107Z,8.00
2023-04-21T16:12:28.305Z,6.70
2023-04-21T16:15:01.648Z,6.93
2023-04-21T16:17:35.477Z,6.90
2023-04-21T16:20:05.404Z,7.70
2023-04-21T16:22:32.733Z,7.00
2023-04-21T16:25:00.841Z,8.67
2023-04-21T16:27:28.309Z,6.80
2023-04-21T16:29:55.519Z,7.10
2023-04-21T16:32:22.838Z,6.03
2023-04-21T16:34:50.074Z,7.17
2023-04-21T16:37:17.290Z,7.17
2023-04-21T16:39:44.388Z,6.57
2023-04-21T16:42:11.729Z,7.23
2023-04-21T16:44:39.051Z,6.67
2023-04-21T16:47:06.723Z,6.90
2023-04-21T16:49:33.837Z,7.37
2023-04-21T16:52:01.095Z,6.97
2023-04-21T16:54:28.140Z,6.67
2023-04-21T16:56:55.352Z,7.00
2023-04-21T16:59:23.787Z,6.83
2023-04-21T17:01:50.900Z,6.73
2023-04-21T17:04:18.007Z,6.83
2023-04-21T17:06:45.077Z,6.23
2023-04-21T17:09:12.119Z,6.30
2023-04-21T17:11:40.235Z,6.67
2023-04-21T17:14:07.656Z,6.87
2023-04-21T17:16:34.960Z,7.80
2023-04-21T17:19:02.606Z,8.10
2023-04-21T17:21:29.608Z,7.80
2023-04-21T17:23:56.681Z,7.73
2023-04-21T17:26:24.101Z,6.93
2023-04-21T17:28:51.600Z,6.83
2023-04-21T17:31:18.922Z,7.80
2023-04-21T17:33:46.017Z,7.57
2023-04-21T17:36:13.335Z,7.97
2023-04-21T17:38:42.764Z,7.53
2023-04-21T17:41:10.306Z,8.57
2023-04-21T17:43:37.392Z,8.13
2023-04-21T17:46:05.578Z,7.97
2023-04-21T17:48:32.697Z,7.97
2023-04-21T17:50:59.927Z,7.67
2023-04-21T17:53:27.374Z,7.33
2023-04-21T17:55:54.501Z,7.17
2023-04-21T17:58:21.659Z,7.80
2023-04-21T18:00:48.794Z,7.80
2023-04-21T18:03:16.866Z,7.63
2023-04-21T18:05:44.745Z,7.23
2023-04-21T18:08:12.096Z,7.97
2023-04-21T18:10:39.254Z,7.83
2023-04-21T18:13:06.572Z,8.23
2023-04-21T18:15:33.727Z,7.80
2023-04-21T18:18:00.955Z,7.63
2023-04-21T18:20:28.242Z,8.13
2023-04-21T18:22:55.412Z,7.67
2023-04-21T18:25:38.416Z,7.80
2023-04-21T18:28:11.180Z,7.73
2023-04-21T18:30:39.587Z,7.30
2023-04-21T18:33:06.834Z,7.60
2023-04-21T18:35:34.219Z,7.53
2023-04-21T18:38:01.498Z,7.80
2023-04-21T18:40:28.649Z,7.93
2023-04-21T18:42:56.140Z,7.77
2023-04-21T18:45:23.234Z,7.50
2023-04-21T18:47:50.380Z,7.60
2023-04-21T18:50:17.650Z,7.70
2023-04-21T18:52:44.896Z,7.67
2023-04-21T18:55:12.025Z,7.37
2023-04-21T18:57:39.174Z,8.57
2023-04-21T19:00:07.519Z,7.10
2023-04-21T19:02:34.816Z,7.80
2023-04-21T19:05:02.056Z,7.93
2023-04-21T19:07:29.278Z,8.07
2023-04-21T19:09:56.323Z,8.27
2023-04-21T19:12:23.699Z,7.10
2023-04-21T19:14:51.986Z,7.23
2023-04-21T19:17:19.229Z,7.53
2023-04-21T19:19:46.288Z,7.97
2023-04-21T19:22:13.510Z,7.90
2023-04-21T19:24:40.744Z,7.67
2023-04-21T19:27:08.007Z,8.67
2023-04-21T19:29:36.671Z,7.80
2023-04-21T19:32:03.896Z,8.37
2023-04-21T19:34:31.004Z,8.63
2023-04-21T19:36:58.136Z,8.40
2023-04-21T19:39:25.219Z,7.40
2023-04-21T19:41:52.327Z,7.50
2023-04-21T19:44:19.366Z,8.10
2023-04-21T19:46:48.838Z,8.93
2023-04-21T19:49:15.938Z,8.80
2023-04-21T19:51:43.033Z,9.07
2023-04-21T19:54:12.390Z,8.90
2023-04-21T19:56:40.656Z,8.10
2023-04-21T19:59:08.179Z,8.90
2023-04-21T20:01:35.595Z,9.67
2023-04-21T20:04:03.903Z,8.87
2023-04-21T20:06:32.133Z,8.63
2023-04-21T20:08:59.344Z,8.43
2023-04-21T20:11:29.094Z,8.67
2023-04-21T20:13:56.828Z,9.20
2023-04-21T20:16:26.552Z,9.53
2023-04-21T20:18:56.809Z,10.27
2023-04-21T20:21:25.341Z,9.23
2023-04-21T20:23:52.783Z,10.00
2023-04-21T20:26:20.919Z,9.33
2023-04-21T20:28:48.445Z,10.17
2023-04-21T20:31:16.678Z,10.63
2023-04-21T20:33:43.834Z,10.50
2023-04-21T20:36:11.985Z,9.60
2023-04-21T20:38:39.049Z,11.90
2023-04-21T20:41:06.128Z,9.93
2023-04-21T20:43:33.642Z,9.67
2023-04-21T20:46:01.755Z,9.87
2023-04-21T20:48:28.852Z,10.00
2023-04-21T20:50:56.066Z,9.70
2023-04-21T20:53:23.470Z,10.30
2023-04-21T20:55:50.826Z,10.67
2023-04-21T20:58:17.979Z,11.07
2023-04-21T21:00:45.455Z,10.80
2023-04-21T21:03:13.934Z,11.17
2023-04-21T21:05:41.561Z,9.90
2023-04-21T21:08:09.174Z,10.83
2023-04-21T21:10:36.650Z,11.10
2023-04-21T21:13:03.802Z,11.60
2023-04-21T21:15:31.142Z,11.30
2023-04-21T21:17:58.414Z,10.83
2023-04-21T21:20:25.710Z,9.70
2023-04-21T21:22:53.144Z,10.07
2023-04-21T21:25:20.538Z,9.43
2023-04-21T21:27:47.895Z,10.13
2023-04-21T21:30:15.516Z,8.03
2023-04-21T21:32:42.637Z,8.13
2023-04-21T21:35:10.550Z,9.73
2023-04-21T21:37:38.483Z,10.20
2023-04-21T21:40:07.207Z,9.30
2023-04-21T21:42:34.521Z,9.80
2023-04-21T21:45:01.751Z,8.87
2023-04-21T21:47:28.867Z,8.37
2023-04-21T21:49:58.739Z,8.77
2023-04-21T21:52:26.558Z,7.80
2023-04-21T21:54:54.077Z,8.60
2023-04-21T21:57:21.981Z,8.57
2023-04-21T21:59:49.621Z,8.37
2023-04-21T22:02:16.756Z,7.43
2023-04-21T22:04:44.217Z,8.23
2023-04-21T22:07:11.415Z,7.83
2023-04-21T22:09:40.207Z,8.27
2023-04-21T22:12:07.704Z,8.13
2023-04-21T22:14:35.324Z,7.87
2023-04-21T22:17:03.013Z,8.40
2023-04-21T22:19:31.117Z,9.07
2023-04-21T22:21:58.302Z,9.07
2023-04-21T22:24:25.609Z,9.13
2023-04-21T22:26:52.703Z,9.37
2023-04-21T22:29:19.827Z,8.63
2023-04-21T22:31:47.605Z,8.90
2023-04-21T22:34:19.615Z,7.93
2023-04-21T22:36:46.826Z,9.33
2023-04-21T22:39:13.899Z,9.97
2023-04-21T22:41:41.357Z,11.77
2023-04-21T22:44:08.739Z,14.57
2023-04-21T22:46:36.551Z,13.17
2023-04-21T22:49:04.106Z,13.03
2023-04-21T22:51:32.645Z,13.53
2023-04-21T22:54:00.648Z,12.50
2023-04-21T22:56:28.638Z,12.00
2023-04-21T22:58:55.658Z,11.80
2023-04-21T23:01:22.996Z,10.10
2023-04-21T23:03:50.338Z,10.60
2023-04-21T23:06:17.608Z,9.93
2023-04-21T23:08:44.742Z,10.87
2023-04-21T23:11:11.996Z,11.43
2023-04-21T23:13:40.006Z,10.87
2023-04-21T23:16:07.462Z,11.10
2023-04-21T23:18:34.622Z,10.67
2023-04-21T23:21:02.024Z,11.13
2023-04-21T23:23:29.215Z,11.63
2023-04-21T23:25:56.370Z,11.37
2023-04-21T23:28:24.413Z,12.23
2023-04-21T23:30:51.629Z,12.23
2023-04-21T23:33:18.805Z,11.67
2023-04-21T23:35:46.110Z,12.07
2023-04-21T23:38:13.218Z,11.40
2023-04-21T23:40:40.431Z,12.90
2023-04-21T23:43:07.760Z,13.43
2023-04-21T23:45:34.876Z,12.80
2023-04-21T23:48:01.977Z,14.13
2023-04-21T23:50:29.482Z,12.67
2023-04-21T23:52:56.615Z,13.57
2023-04-21T23:55:23.743Z,12.53
2023-04-21T23:57:50.850Z,12.83
